createdAt,value
2023-04-01T00:01:06.325Z,9.42
2023-04-01T00:03:34.735Z,9.37
2023-04-01T00:06:01.854Z,9.37
2023-04-01T00:08:30.103Z,9.30
2023-04-01T00:10:57.994Z,9.30
2023-04-01T00:13:27.579Z,9.28
2023-04-01T00:15:56.578Z,9.34
2023-04-01T00:18:27.103Z,9.23
2023-04-01T00:20:54.149Z,9.24
2023-04-01T00:23:21.884Z,9.23
2023-04-01T00:25:49.203Z,9.28
2023-04-01T00:28:21.040Z,9.20
2023-04-01T00:30:48.073Z,9.12
2023-04-01T00:33:15.063Z,9.10
2023-04-01T00:35:42.023Z,9.12
2023-04-01T00:38:08.781Z,9.12
2023-04-01T00:40:39.412Z,9.15
2023-04-01T00:43:13.610Z,9.10
2023-04-01T00:45:43.240Z,9.16
2023-04-01T00:48:14.167Z,9.13
2023-04-01T00:50:44.452Z,9.12
2023-04-01T00:53:12.052Z,9.16
2023-04-01T00:55:42.418Z,9.19
2023-04-01T00:58:14.661Z,9.15
2023-04-01T01:00:41.490Z,9.08
2023-04-01T01:03:08.580Z,9.14
2023-04-01T01:06:08.756Z,9.17
2023-04-01T01:09:09.138Z,9.13
2023-04-01T01:12:03.037Z,9.12
2023-04-01T01:14:42.144Z,9.21
2023-04-01T01:17:47.697Z,9.19
2023-04-01T01:20:39.326Z,9.14
2023-04-01T01:23:33.770Z,9.20
2023-04-01T01:26:06.682Z,9.15
2023-04-01T01:28:54.790Z,9.19
2023-04-01T01:31:35.275Z,9.17
2023-04-01T01:34:23.091Z,9.18
2023-04-01T01:36:54.631Z,9.18
2023-04-01T01:39:27.622Z,9.17
2023-04-01T01:41:56.553Z,9.16
2023-04-01T01:44:25.052Z,9.20
2023-04-01T01:46:51.954Z,9.21
2023-04-01T01:49:19.927Z,9.27
2023-04-01T01:51:46.531Z,9.28
2023-04-01T01:54:18.446Z,9.24
2023-04-01T01:56:51.537Z,9.25
2023-04-01T01:59:21.987Z,9.24
2023-04-01T02:01:53.090Z,9.25
2023-04-01T02:04:21.267Z,9.27
2023-04-01T02:06:57.496Z,9.24
2023-04-01T02:09:24.044Z,9.26
2023-04-01T02:11:58.886Z,9.23
2023-04-01T02:14:38.326Z,9.27
2023-04-01T02:17:15.989Z,9.24
2023-04-01T02:19:49.599Z,9.28
2023-04-01T02:22:21.143Z,9.23
2023-04-01T02:24:51.416Z,9.21
2023-04-01T02:27:18.338Z,9.27
2023-04-01T02:29:44.935Z,9.23
2023-04-01T02:32:14.647Z,9.19
2023-04-01T02:34:42.140Z,9.23
2023-04-01T02:37:09.096Z,9.18
2023-04-01T02:39:36.168Z,9.19
2023-04-01T02:42:02.788Z,9.14
2023-04-01T02:44:29.331Z,9.17
2023-04-01T02:46:56.356Z,9.08
2023-04-01T02:49:22.888Z,9.01
2023-04-01T02:51:49.725Z,9.00
2023-04-01T02:54:16.196Z,9.00
2023-04-01T02:56:42.807Z,8.98
2023-04-01T02:59:09.708Z,8.98
2023-04-01T03:01:36.831Z,8.84
2023-04-01T03:04:03.466Z,8.90
2023-04-01T03:06:30.337Z,8.92
2023-04-01T03:08:57.618Z,8.92
2023-04-01T03:11:24.074Z,8.80
2023-04-01T03:13:51.262Z,8.74
2023-04-01T03:16:17.752Z,8.62
2023-04-01T03:18:45.125Z,8.69
2023-04-01T03:21:20.517Z,8.70
2023-04-01T03:23:47.366Z,8.69
2023-04-01T03:26:14.482Z,8.66
2023-04-01T03:28:41.504Z,8.65
2023-04-01T03:31:08.398Z,8.63
2023-04-01T03:33:35.317Z,8.65
2023-04-01T03:36:01.824Z,8.64
2023-04-01T03:38:28.466Z,8.63
2023-04-01T03:40:55.326Z,8.59
2023-04-01T03:43:22.313Z,8.59
2023-04-01T03:45:51.015Z,8.57
2023-04-01T03:48:18.106Z,8.52
2023-04-01T03:50:45.893Z,8.52
2023-04-01T03:53:12.366Z,8.49
2023-04-01T03:55:39.676Z,8.51
2023-04-01T03:58:07.676Z,8.51
2023-04-01T04:00:34.483Z,8.50
2023-04-01T04:03:01.627Z,8.52
2023-04-01T04:05:28.603Z,8.47
2023-04-01T04:07:55.610Z,8.50
2023-04-01T04:10:24.122Z,8.55
2023-04-01T04:12:50.978Z,8.50
2023-04-01T04:15:17.590Z,8.47
2023-04-01T04:17:45.652Z,8.45
2023-04-01T04:20:12.197Z,8.44
2023-04-01T04:22:38.657Z,8.43
2023-04-01T04:25:05.731Z,8.46
2023-04-01T04:27:32.688Z,8.47
2023-04-01T04:29:59.242Z,8.49
2023-04-01T04:32:26.261Z,8.47
2023-04-01T04:34:52.733Z,8.52
2023-04-01T04:37:19.497Z,8.47
2023-04-01T04:39:45.955Z,8.51
2023-04-01T04:42:12.561Z,8.46
2023-04-01T04:44:40.061Z,8.50
2023-04-01T04:50:54.702Z,8.53
2023-04-01T04:53:21.181Z,8.54
2023-04-01T04:59:35.092Z,8.48
2023-04-01T05:02:01.921Z,8.52
2023-04-01T05:04:28.309Z,8.56
2023-04-01T05:06:55.439Z,8.51
2023-04-01T05:09:22.278Z,8.56
2023-04-01T05:11:48.791Z,8.54
2023-04-01T05:14:16.333Z,8.57
2023-04-01T05:16:42.819Z,8.57
2023-04-01T05:19:09.267Z,8.56
2023-04-01T05:21:35.794Z,8.52
2023-04-01T05:24:02.428Z,8.47
2023-04-01T05:26:29.213Z,8.56
2023-04-01T05:28:55.716Z,8.54
2023-04-01T05:31:22.129Z,8.49
2023-04-01T05:33:49.072Z,8.51
2023-04-01T05:36:17.604Z,8.56
2023-04-01T05:38:47.039Z,8.59
2023-04-01T05:41:13.986Z,8.60
2023-04-01T05:43:41.260Z,8.48
2023-04-01T05:46:07.766Z,8.56
2023-04-01T05:48:35.764Z,8.49
2023-04-01T05:51:03.059Z,8.59
2023-04-01T05:53:29.964Z,8.60
2023-04-01T05:55:56.493Z,8.61
2023-04-01T05:58:22.995Z,8.58
2023-04-01T06:00:59.026Z,8.62
2023-04-01T06:03:32.897Z,8.61
2023-04-01T06:05:59.926Z,8.64
2023-04-01T06:08:26.758Z,8.66
2023-04-01T06:11:00.914Z,8.66
2023-04-01T06:13:38.554Z,8.64
2023-04-01T06:16:13.993Z,8.59
2023-04-01T06:18:59.582Z,8.62
2023-04-01T06:21:36.039Z,8.59
2023-04-01T06:24:33.614Z,8.58
2023-04-01T06:27:21.290Z,8.62
2023-04-01T06:30:04.064Z,8.63
2023-04-01T06:32:54.216Z,8.67
2023-04-01T06:35:44.043Z,8.75
2023-04-01T06:38:31.009Z,8.77
2023-04-01T06:41:10.393Z,8.76
2023-04-01T06:43:58.878Z,8.90
2023-04-01T06:46:28.283Z,8.90
2023-04-01T06:49:27.639Z,8.99
2023-04-01T06:52:01.587Z,9.01
2023-04-01T06:54:48.371Z,9.02
2023-04-01T06:57:36.910Z,8.94
2023-04-01T07:00:15.569Z,8.96
2023-04-01T07:02:59.560Z,8.99
2023-04-01T07:05:37.090Z,8.96
2023-04-01T07:08:10.280Z,8.97
2023-04-01T07:10:58.136Z,8.92
2023-04-01T07:13:50.800Z,8.90
2023-04-01T07:16:53.123Z,9.02
2023-04-01T07:19:28.441Z,9.03
2023-04-01T07:22:20.053Z,8.96
2023-04-01T07:24:47.017Z,8.98
2023-04-01T07:27:15.343Z,8.99
2023-04-01T07:29:42.725Z,8.99
2023-04-01T07:32:36.362Z,9.03
2023-04-01T07:35:31.692Z,9.08
2023-04-01T07:38:07.210Z,9.04
2023-04-01T07:40:55.519Z,9.15
2023-04-01T07:43:53.573Z,9.25
2023-04-01T07:46:48.948Z,9.41
2023-04-01T07:49:25.449Z,9.58
2023-04-01T07:52:00.926Z,9.64
2023-04-01T07:54:41.978Z,9.67
2023-04-01T07:57:21.434Z,9.71
2023-04-01T07:59:57.881Z,9.70
2023-04-01T08:02:39.923Z,9.79
2023-04-01T08:05:19.854Z,9.70
2023-04-01T08:08:10.385Z,9.63
2023-04-01T08:11:03.984Z,9.62
2023-04-01T08:13:58.732Z,9.65
2023-04-01T08:16:54.474Z,9.63
2023-04-01T08:19:24.088Z,9.70
2023-04-01T08:21:58.767Z,9.63
2023-04-01T08:24:47.100Z,9.71
2023-04-01T08:27:38.372Z,9.78
2023-04-01T08:30:18.450Z,9.83
2023-04-01T08:32:53.332Z,9.81
2023-04-01T08:35:36.290Z,9.90
2023-04-01T08:38:24.411Z,9.82
2023-04-01T08:41:28.555Z,9.82
2023-04-01T08:44:19.157Z,9.82
2023-04-01T08:47:20.027Z,9.83
2023-04-01T08:50:02.396Z,9.81
2023-04-01T08:52:36.143Z,9.84
2023-04-01T08:55:27.153Z,9.82
2023-04-01T08:58:09.177Z,9.79
2023-04-01T09:00:48.502Z,9.80
2023-04-01T09:03:44.998Z,9.87
2023-04-01T09:06:30.126Z,9.92
2023-04-01T09:09:41.042Z,9.93
2023-04-01T09:12:49.691Z,9.87
2023-04-01T09:15:38.910Z,9.91
2023-04-01T09:18:24.059Z,9.86
2023-04-01T09:21:05.103Z,9.84
2023-04-01T09:23:32.052Z,9.85
2023-04-01T09:26:13.629Z,9.89
2023-04-01T09:28:46.104Z,9.80
2023-04-01T09:31:40.621Z,9.81
2023-04-01T09:34:34.232Z,9.85
2023-04-01T09:37:34.660Z,9.82
2023-04-01T09:40:27.250Z,9.91
2023-04-01T09:43:07.451Z,9.90
2023-04-01T09:45:55.245Z,9.91
2023-04-01T09:48:36.728Z,9.80
2023-04-01T09:51:13.418Z,9.93
2023-04-01T09:54:02.062Z,10.08
2023-04-01T09:57:06.500Z,10.06
2023-04-01T09:59:51.456Z,10.22
2023-04-01T10:03:12.142Z,10.14
2023-04-01T10:05:57.143Z,10.09
2023-04-01T10:08:42.191Z,9.91
2023-04-01T10:11:20.843Z,9.73
2023-04-01T10:14:15.227Z,9.80
2023-04-01T10:17:26.273Z,9.80
2023-04-01T10:20:22.028Z,9.92
2023-04-01T10:23:09.572Z,10.02
2023-04-01T10:26:17.501Z,10.05
2023-04-01T10:29:16.021Z,10.12
2023-04-01T10:32:21.217Z,10.20
2023-04-01T10:35:26.077Z,10.29
2023-04-01T10:38:14.345Z,10.22
2023-04-01T10:41:01.161Z,10.23
2023-04-01T10:43:49.387Z,10.26
2023-04-01T10:46:33.053Z,10.34
2023-04-01T10:49:12.186Z,10.26
2023-04-01T10:51:44.535Z,10.27
2023-04-01T10:54:36.899Z,10.31
2023-04-01T10:57:27.576Z,10.31
2023-04-01T11:00:18.732Z,10.28
2023-04-01T11:03:14.201Z,10.23
2023-04-01T11:05:59.505Z,10.02
2023-04-01T11:08:25.883Z,10.03
2023-04-01T11:11:04.450Z,10.00
2023-04-01T11:13:53.180Z,10.04
2023-04-01T11:16:41.567Z,10.00
2023-04-01T11:19:36.922Z,10.12
2023-04-01T11:22:10.806Z,10.35
2023-04-01T11:24:49.113Z,10.38
2023-04-01T11:27:39.710Z,10.66
2023-04-01T11:30:25.301Z,10.75
2023-04-01T11:33:31.676Z,10.82
2023-04-01T11:36:20.049Z,10.98
2023-04-01T11:39:22.693Z,10.89
2023-04-01T11:42:10.777Z,10.93
2023-04-01T11:44:45.545Z,10.91
2023-04-01T11:47:21.520Z,10.87
2023-04-01T11:50:00.812Z,11.07
2023-04-01T11:52:46.109Z,11.16
2023-04-01T11:55:31.252Z,11.21
2023-04-01T11:58:19.251Z,11.53
2023-04-01T12:00:49.076Z,11.61
2023-04-01T12:03:47.928Z,11.47
2023-04-01T12:06:53.150Z,11.65
2023-04-01T12:09:31.832Z,11.47
2023-04-01T12:12:47.721Z,11.34
2023-04-01T12:15:26.595Z,11.14
2023-04-01T12:17:53.369Z,11.07
2023-04-01T12:20:34.244Z,11.08
2023-04-01T12:23:12.857Z,10.95
2023-04-01T12:26:07.751Z,11.09
2023-04-01T12:28:46.878Z,11.23
2023-04-01T12:31:34.904Z,11.38
2023-04-01T12:34:10.551Z,11.35
2023-04-01T12:37:24.920Z,11.19
2023-04-01T12:40:10.047Z,11.23
2023-04-01T12:42:42.500Z,11.37
2023-04-01T12:45:34.951Z,11.49
2023-04-01T12:48:20.113Z,11.60
2023-04-01T12:51:06.766Z,11.67
2023-04-01T12:54:12.435Z,11.88
2023-04-01T12:57:00.564Z,11.73
2023-04-01T13:00:04.778Z,11.73
2023-04-01T13:03:08.953Z,11.75
2023-04-01T13:06:05.291Z,11.74
2023-04-01T13:08:38.843Z,11.64
2023-04-01T13:11:18.968Z,11.64
2023-04-01T13:13:57.478Z,11.66
2023-04-01T13:16:31.964Z,11.71
2023-04-01T13:19:05.180Z,12.04
2023-04-01T13:21:40.409Z,11.97
2023-04-01T13:24:27.026Z,11.75
2023-04-01T13:27:42.408Z,11.67
2023-04-01T13:30:34.450Z,11.49
2023-04-01T13:33:15.933Z,11.49
2023-04-01T13:36:04.062Z,11.47
2023-04-01T13:38:53.052Z,11.30
2023-04-01T13:41:43.805Z,11.10
2023-04-01T13:44:36.304Z,11.01
2023-04-01T13:47:20.129Z,11.03
2023-04-01T13:50:04.508Z,11.19
2023-04-01T13:52:50.182Z,11.18
2023-04-01T13:55:31.797Z,11.10
2023-04-01T13:58:29.584Z,11.00
2023-04-01T14:01:06.801Z,11.09
2023-04-01T14:03:41.639Z,11.09
2023-04-01T14:06:13.983Z,11.17
2023-04-01T14:08:46.418Z,11.26
2023-04-01T14:11:40.464Z,11.29
2023-04-01T14:14:30.453Z,11.44
2023-04-01T14:17:08.801Z,11.44
2023-04-01T14:19:37.899Z,11.53
2023-04-01T14:22:11.882Z,11.58
2023-04-01T14:24:46.698Z,11.59
2023-04-01T14:27:31.782Z,11.59
2023-04-01T14:30:16.111Z,11.60
2023-04-01T14:33:00.984Z,11.51
2023-04-01T14:35:43.104Z,11.32
2023-04-01T14:38:25.947Z,11.24
2023-04-01T14:40:52.375Z,11.14
2023-04-01T14:43:30.048Z,11.08
2023-04-01T14:46:24.847Z,11.16
2023-04-01T14:48:58.908Z,11.07
2023-04-01T14:51:42.021Z,11.21
2023-04-01T14:54:11.438Z,11.15
2023-04-01T14:56:39.296Z,11.21
2023-04-01T14:59:11.537Z,11.23
2023-04-01T15:01:56.531Z,11.27
2023-04-01T15:04:59.949Z,11.05
2023-04-01T15:07:45.196Z,10.93
2023-04-01T15:10:36.492Z,10.68
2023-04-01T15:13:22.727Z,10.69
2023-04-01T15:16:18.825Z,10.77
2023-04-01T15:19:09.892Z,10.93
2023-04-01T15:22:04.330Z,10.96
2023-04-01T15:24:47.751Z,10.78
2023-04-01T15:27:33.056Z,10.88
2023-04-01T15:30:15.779Z,10.83
2023-04-01T15:32:55.179Z,10.78
2023-04-01T15:35:30.719Z,10.73
2023-04-01T15:38:10.542Z,10.61
2023-04-01T15:40:58.824Z,10.63
2023-04-01T15:43:33.998Z,10.63
2023-04-01T15:46:19.110Z,10.61
2023-04-01T15:49:05.781Z,10.57
2023-04-01T15:52:07.162Z,10.61
2023-04-01T15:55:11.699Z,10.62
2023-04-01T15:58:19.448Z,10.62
2023-04-01T16:01:00.635Z,10.69
2023-04-01T16:03:42.248Z,10.65
2023-04-01T16:06:36.458Z,10.62
2023-04-01T16:09:31.166Z,10.63
2023-04-01T16:12:00.614Z,10.67
2023-04-01T16:14:37.863Z,10.47
2023-04-01T16:17:16.663Z,10.54
2023-04-01T16:20:12.622Z,10.58
2023-04-01T16:22:58.603Z,10.59
2023-04-01T16:25:44.978Z,10.56
2023-04-01T16:28:29.501Z,10.50
2023-04-01T16:31:06.477Z,10.48
2023-04-01T16:33:56.302Z,10.51
2023-04-01T16:36:37.046Z,10.38
2023-04-01T16:39:22.039Z,10.35
2023-04-01T16:42:04.138Z,10.28
2023-04-01T16:44:31.269Z,10.09
2023-04-01T16:47:08.567Z,10.08
2023-04-01T16:49:44.958Z,10.12
2023-04-01T16:52:11.628Z,10.07
2023-04-01T16:54:57.849Z,10.02
2023-04-01T16:57:32.174Z,9.97
2023-04-01T17:00:05.040Z,9.97
2023-04-01T17:02:38.902Z,10.13
2023-04-01T17:05:14.088Z,9.95
2023-04-01T17:07:49.045Z,9.97
2023-04-01T17:10:52.591Z,9.88
2023-04-01T17:13:40.612Z,9.81
2023-04-01T17:16:07.080Z,9.77
2023-04-01T17:19:06.207Z,9.79
2023-04-01T17:22:02.997Z,9.73
2023-04-01T17:24:41.821Z,9.65
2023-04-01T17:27:30.228Z,9.57
2023-04-01T17:30:18.462Z,9.57
2023-04-01T17:33:16.800Z,9.66
2023-04-01T17:36:05.215Z,9.59
2023-04-01T17:38:50.017Z,9.57
2023-04-01T17:41:54.061Z,9.48
2023-04-01T17:44:32.651Z,9.57
2023-04-01T17:47:24.785Z,9.51
2023-04-01T17:50:08.223Z,9.52
2023-04-01T17:52:47.001Z,9.53
2023-04-01T17:55:22.334Z,9.40
2023-04-01T17:58:00.880Z,9.45
2023-04-01T18:01:09.417Z,9.33
2023-04-01T18:04:02.466Z,9.30
2023-04-01T18:06:43.099Z,9.34
2023-04-01T18:09:09.465Z,9.39
2023-04-01T18:11:54.009Z,9.36
2023-04-01T18:14:46.608Z,9.32
2023-04-01T18:17:22.587Z,9.41
2023-04-01T18:19:54.870Z,9.27
2023-04-01T18:22:38.678Z,9.27
2023-04-01T18:25:39.024Z,9.26
2023-04-01T18:28:36.700Z,9.19
2023-04-01T18:31:03.049Z,9.21
2023-04-01T18:33:32.760Z,9.22
2023-04-01T18:36:18.949Z,9.21
2023-04-01T18:38:57.068Z,9.17
2023-04-01T18:41:47.162Z,9.20
2023-04-01T18:44:19.458Z,9.19
2023-04-01T18:47:12.750Z,9.12
2023-04-01T18:49:54.658Z,9.08
2023-04-01T18:52:29.704Z,9.08
2023-04-01T18:55:02.546Z,9.06
2023-04-01T18:57:50.744Z,9.04
2023-04-01T19:00:33.729Z,9.00
2023-04-01T19:03:22.617Z,8.98
2023-04-01T19:05:52.734Z,8.90
2023-04-01T19:08:34.644Z,8.88
2023-04-01T19:11:19.150Z,8.84
2023-04-01T19:14:27.901Z,8.88
2023-04-01T19:17:08.644Z,8.93
2023-04-01T19:19:43.051Z,8.94
2023-04-01T19:22:12.390Z,8.86
2023-04-01T19:24:42.088Z,8.90
2023-04-01T19:27:35.348Z,8.94
2023-04-01T19:30:17.132Z,8.92
2023-04-01T19:33:14.651Z,8.92
2023-04-01T19:35:56.624Z,8.78
2023-04-01T19:38:38.701Z,8.78
2023-04-01T19:41:33.497Z,8.80
2023-04-01T19:44:02.962Z,8.84
2023-04-01T19:46:33.828Z,8.82
2023-04-01T19:49:22.513Z,8.89
2023-04-01T19:52:01.093Z,8.77
2023-04-01T19:54:44.334Z,8.82
2023-04-01T19:57:23.127Z,8.87
2023-04-01T19:59:54.241Z,8.82
2023-04-01T20:02:46.085Z,8.79
2023-04-01T20:05:51.189Z,8.85
2023-04-01T20:08:32.611Z,8.86
2023-04-01T20:11:08.247Z,8.89
2023-04-01T20:13:34.563Z,8.91
2023-04-01T20:16:05.612Z,8.83
2023-04-01T20:19:01.186Z,8.75
2023-04-01T20:21:48.090Z,8.78
2023-04-01T20:24:14.377Z,8.81
2023-04-01T20:26:46.761Z,8.75
2023-04-01T20:29:28.078Z,8.88
2023-04-01T20:32:10.026Z,8.84
2023-04-01T20:34:52.076Z,8.80
2023-04-01T20:37:31.149Z,8.77
2023-04-01T20:40:36.274Z,8.74
2023-04-01T20:43:29.681Z,8.71
2023-04-01T20:46:16.070Z,8.66
2023-04-01T20:49:12.104Z,8.70
2023-04-01T20:52:07.055Z,8.69
2023-04-01T20:54:45.872Z,8.68
2023-04-01T20:57:15.663Z,8.67
2023-04-01T21:00:19.655Z,8.56
2023-04-01T21:03:07.937Z,8.62
2023-04-01T21:05:49.827Z,8.72
2023-04-01T21:08:23.279Z,8.64
2023-04-01T21:11:10.946Z,8.68
2023-04-01T21:13:47.278Z,8.70
2023-04-01T21:16:38.809Z,8.62
2023-04-01T21:19:26.683Z,8.59
2023-04-01T21:22:17.750Z,8.70
2023-04-01T21:24:55.582Z,8.61
2023-04-01T21:27:37.560Z,8.62
2023-04-01T21:30:20.070Z,8.63
2023-04-01T21:32:54.431Z,8.59
2023-04-01T21:35:38.166Z,8.58
2023-04-01T21:38:20.047Z,8.53
2023-04-01T21:41:18.828Z,8.58
2023-04-01T21:44:05.640Z,8.48
2023-04-01T21:47:06.160Z,8.47
2023-04-01T21:49:49.915Z,8.41
2023-04-01T21:52:19.255Z,8.41
2023-04-01T21:55:04.725Z,8.45
2023-04-01T21:57:48.000Z,8.43
2023-04-01T22:00:17.531Z,8.43
2023-04-01T22:03:19.776Z,8.41
2023-04-01T22:06:06.227Z,8.55
2023-04-01T22:08:44.685Z,8.50
2023-04-01T22:11:50.410Z,8.52
2023-04-01T22:14:20.964Z,8.51
2023-04-01T22:17:04.732Z,8.39
2023-04-01T22:20:04.678Z,8.42
2023-04-01T22:22:49.524Z,8.43
2023-04-01T22:25:31.655Z,8.45
2023-04-01T22:28:41.624Z,8.41
2023-04-01T22:31:12.387Z,8.38
2023-04-01T22:33:59.623Z,8.48
2023-04-01T22:37:01.233Z,8.48
2023-04-01T22:39:39.753Z,8.43
2023-04-01T22:42:41.684Z,8.37
2023-04-01T22:45:14.131Z,8.44
2023-04-01T22:48:05.355Z,8.41
2023-04-01T22:51:00.938Z,8.45
2023-04-01T22:53:42.238Z,8.36
2023-04-01T22:56:17.550Z,8.36
2023-04-01T22:58:51.407Z,8.32
2023-04-01T23:01:25.539Z,8.37
2023-04-01T23:03:52.733Z,8.33
2023-04-01T23:06:28.828Z,8.37
2023-04-01T23:09:06.335Z,8.35
2023-04-01T23:12:04.892Z,8.30
2023-04-01T23:14:45.203Z,8.32
2023-04-01T23:17:32.935Z,8.43
2023-04-01T23:20:28.498Z,8.26
2023-04-01T23:23:22.981Z,8.25
2023-04-01T23:26:06.292Z,8.27
2023-04-01T23:28:46.420Z,8.17
2023-04-01T23:31:43.465Z,8.15
2023-04-01T23:34:12.674Z,8.18
2023-04-01T23:36:46.475Z,8.15
2023-04-01T23:39:30.117Z,8.17
2023-04-01T23:42:03.088Z,8.21
2023-04-01T23:44:30.847Z,8.21
2023-04-01T23:46:59.581Z,8.20
2023-04-01T23:49:34.985Z,8.12
2023-04-01T23:52:26.163Z,8.11
2023-04-01T23:55:11.497Z,8.24
2023-04-01T23:57:39.080Z,8.11
